sensor_id;sensor_type;location;lat;lon;timestamp;P1;durP1;ratioP1;P2;durP2;ratioP2
2293;SDS011;1155;42.644;23.264;2023-03-25T00:00:08;13.20;;;7.53;;
2293;SDS011;1155;42.644;23.264;2023-03-25T00:02:39;7.77;;;6.00;;
2293;SDS011;1155;42.644;23.264;2023-03-25T00:05:06;10.20;;;6.23;;
2293;SDS011;1155;42.644;23.264;2023-03-25T00:07:36;8.30;;;6.37;;
2293;SDS011;1155;42.644;23.264;2023-03-25T00:10:03;7.40;;;5.83;;
2293;SDS011;1155;42.644;23.264;2023-03-25T00:12:30;10.73;;;6.77;;
2293;SDS011;1155;42.644;23.264;2023-03-25T00:14:57;8.90;;;6.63;;
2293;SDS011;1155;42.644;23.264;2023-03-25T00:17:24;8.40;;;7.03;;
2293;SDS011;1155;42.644;23.264;2023-03-25T00:19:53;9.77;;;7.17;;
2293;SDS011;1155;42.644;23.264;2023-03-25T00:22:20;8.00;;;6.23;;
2293;SDS011;1155;42.644;23.264;2023-03-25T00:24:49;9.07;;;6.57;;
2293;SDS011;1155;42.644;23.264;2023-03-25T00:27:15;10.93;;;5.77;;
2293;SDS011;1155;42.644;23.264;2023-03-25T00:29:45;10.70;;;5.50;;
2293;SDS011;1155;42.644;23.264;2023-03-25T00:32:13;6.80;;;5.33;;
2293;SDS011;1155;42.644;23.264;2023-03-25T00:34:41;8.10;;;6.10;;
2293;SDS011;1155;42.644;23.264;2023-03-25T00:37:11;9.87;;;6.57;;
2293;SDS011;1155;42.644;23.264;2023-03-25T00:39:42;8.03;;;6.73;;
2293;SDS011;1155;42.644;23.264;2023-03-25T00:42:10;7.93;;;6.70;;
2293;SDS011;1155;42.644;23.264;2023-03-25T00:44:40;7.80;;;6.37;;
2293;SDS011;1155;42.644;23.264;2023-03-25T00:47:07;12.37;;;7.60;;
2293;SDS011;1155;42.644;23.264;2023-03-25T00:49:35;7.67;;;6.47;;
2293;SDS011;1155;42.644;23.264;2023-03-25T00:52:02;12.30;;;5.80;;
2293;SDS011;1155;42.644;23.264;2023-03-25T00:54:29;6.63;;;5.93;;
2293;SDS011;1155;42.644;23.264;2023-03-25T00:56:58;6.60;;;5.90;;
2293;SDS011;1155;42.644;23.264;2023-03-25T00:59:26;7.37;;;5.17;;
2293;SDS011;1155;42.644;23.264;2023-03-25T01:01:53;6.77;;;5.20;;
2293;SDS011;1155;42.644;23.264;2023-03-25T01:04:20;6.43;;;4.83;;
2293;SDS011;1155;42.644;23.264;2023-03-25T01:06:47;7.57;;;4.87;;
2293;SDS011;1155;42.644;23.264;2023-03-25T01:09:17;5.90;;;5.17;;
2293;SDS011;1155;42.644;23.264;2023-03-25T01:11:46;8.23;;;6.40;;
2293;SDS011;1155;42.644;23.264;2023-03-25T01:14:14;8.00;;;6.10;;
2293;SDS011;1155;42.644;23.264;2023-03-25T01:16:44;8.50;;;6.33;;
2293;SDS011;1155;42.644;23.264;2023-03-25T01:19:11;8.30;;;5.47;;
2293;SDS011;1155;42.644;23.264;2023-03-25T01:21:39;8.77;;;6.80;;
2293;SDS011;1155;42.644;23.264;2023-03-25T01:24:07;11.97;;;5.80;;
2293;SDS011;1155;42.644;23.264;2023-03-25T01:26:37;7.63;;;6.07;;
2293;SDS011;1155;42.644;23.264;2023-03-25T01:29:05;10.43;;;6.30;;
2293;SDS011;1155;42.644;23.264;2023-03-25T01:31:32;13.50;;;5.67;;
2293;SDS011;1155;42.644;23.264;2023-03-25T01:34:00;7.67;;;5.10;;
2293;SDS011;1155;42.644;23.264;2023-03-25T01:36:27;9.13;;;6.50;;
2293;SDS011;1155;42.644;23.264;2023-03-25T01:38:54;15.33;;;7.50;;
2293;SDS011;1155;42.644;23.264;2023-03-25T01:41:22;6.83;;;5.50;;
2293;SDS011;1155;42.644;23.264;2023-03-25T01:44:02;6.07;;;5.30;;
2293;SDS011;1155;42.644;23.264;2023-03-25T01:46:30;5.47;;;4.97;;
2293;SDS011;1155;42.644;23.264;2023-03-25T01:48:57;6.50;;;5.80;;
2293;SDS011;1155;42.644;23.264;2023-03-25T01:51:29;10.90;;;5.60;;
2293;SDS011;1155;42.644;23.264;2023-03-25T01:53:57;5.80;;;5.20;;
2293;SDS011;1155;42.644;23.264;2023-03-25T01:56:26;8.23;;;5.80;;
2293;SDS011;1155;42.644;23.264;2023-03-25T01:58:56;7.43;;;5.40;;
2293;SDS011;1155;42.644;23.264;2023-03-25T02:01:24;6.67;;;5.53;;
2293;SDS011;1155;42.644;23.264;2023-03-25T02:03:51;6.20;;;5.63;;
2293;SDS011;1155;42.644;23.264;2023-03-25T02:06:29;9.83;;;6.60;;
2293;SDS011;1155;42.644;23.264;2023-03-25T02:09:01;6.47;;;5.70;;
2293;SDS011;1155;42.644;23.264;2023-03-25T02:11:30;7.80;;;5.07;;
2293;SDS011;1155;42.644;23.264;2023-03-25T02:13:58;9.23;;;6.10;;
2293;SDS011;1155;42.644;23.264;2023-03-25T02:16:29;6.90;;;5.57;;
2293;SDS011;1155;42.644;23.264;2023-03-25T02:19:15;8.13;;;6.43;;
2293;SDS011;1155;42.644;23.264;2023-03-25T02:22:21;5.83;;;5.20;;
2293;SDS011;1155;42.644;23.264;2023-03-25T02:28:06;11.30;;;6.50;;
2293;SDS011;1155;42.644;23.264;2023-03-25T02:30:40;9.60;;;6.60;;
2293;SDS011;1155;42.644;23.264;2023-03-25T02:33:31;10.90;;;7.63;;
2293;SDS011;1155;42.644;23.264;2023-03-25T02:39:23;9.53;;;5.43;;
2293;SDS011;1155;42.644;23.264;2023-03-25T02:41:57;7.10;;;6.03;;
2293;SDS011;1155;42.644;23.264;2023-03-25T02:44:32;6.90;;;5.43;;
2293;SDS011;1155;42.644;23.264;2023-03-25T02:47:04;6.53;;;4.97;;
2293;SDS011;1155;42.644;23.264;2023-03-25T02:49:35;5.80;;;5.00;;
2293;SDS011;1155;42.644;23.264;2023-03-25T02:52:06;6.60;;;5.90;;
2293;SDS011;1155;42.644;23.264;2023-03-25T02:54:38;7.83;;;5.43;;
2293;SDS011;1155;42.644;23.264;2023-03-25T02:57:07;8.07;;;6.20;;
2293;SDS011;1155;42.644;23.264;2023-03-25T02:59:36;10.20;;;6.37;;
2293;SDS011;1155;42.644;23.264;2023-03-25T03:02:05;9.07;;;4.50;;
2293;SDS011;1155;42.644;23.264;2023-03-25T03:04:43;6.60;;;4.93;;
2293;SDS011;1155;42.644;23.264;2023-03-25T03:07:12;6.13;;;4.23;;
2293;SDS011;1155;42.644;23.264;2023-03-25T03:09:46;8.27;;;5.10;;
2293;SDS011;1155;42.644;23.264;2023-03-25T03:12:21;7.30;;;5.30;;
2293;SDS011;1155;42.644;23.264;2023-03-25T03:15:03;8.60;;;5.20;;
2293;SDS011;1155;42.644;23.264;2023-03-25T03:17:40;10.50;;;5.70;;
2293;SDS011;1155;42.644;23.264;2023-03-25T03:20:16;10.53;;;7.63;;
2293;SDS011;1155;42.644;23.264;2023-03-25T03:22:50;8.07;;;6.90;;
2293;SDS011;1155;42.644;23.264;2023-03-25T03:25:25;7.07;;;5.87;;
2293;SDS011;1155;42.644;23.264;2023-03-25T03:27:56;10.37;;;6.87;;
2293;SDS011;1155;42.644;23.264;2023-03-25T03:30:31;9.47;;;5.60;;
2293;SDS011;1155;42.644;23.264;2023-03-25T03:33:07;8.47;;;7.57;;
2293;SDS011;1155;42.644;23.264;2023-03-25T03:35:40;10.33;;;7.87;;
2293;SDS011;1155;42.644;23.264;2023-03-25T03:38:14;13.37;;;8.20;;
2293;SDS011;1155;42.644;23.264;2023-03-25T03:40:47;10.80;;;7.33;;
2293;SDS011;1155;42.644;23.264;2023-03-25T03:43:19;13.00;;;6.73;;
2293;SDS011;1155;42.644;23.264;2023-03-25T03:45:53;9.77;;;6.73;;
2293;SDS011;1155;42.644;23.264;2023-03-25T03:48:24;9.77;;;6.73;;
2293;SDS011;1155;42.644;23.264;2023-03-25T03:50:55;8.07;;;5.90;;
2293;SDS011;1155;42.644;23.264;2023-03-25T03:53:28;8.40;;;6.60;;
2293;SDS011;1155;42.644;23.264;2023-03-25T03:56:00;8.87;;;7.63;;
2293;SDS011;1155;42.644;23.264;2023-03-25T03:58:31;8.50;;;6.00;;
2293;SDS011;1155;42.644;23.264;2023-03-25T04:01:02;12.77;;;7.50;;
2293;SDS011;1155;42.644;23.264;2023-03-25T04:03:35;7.23;;;6.20;;
2293;SDS011;1155;42.644;23.264;2023-03-25T04:06:10;7.23;;;6.50;;
2293;SDS011;1155;42.644;23.264;2023-03-25T04:08:46;12.27;;;6.33;;
2293;SDS011;1155;42.644;23.264;2023-03-25T04:11:24;6.40;;;5.60;;
2293;SDS011;1155;42.644;23.264;2023-03-25T04:13:54;6.80;;;6.07;;
2293;SDS011;1155;42.644;23.264;2023-03-25T04:16:25;13.27;;;7.13;;
2293;SDS011;1155;42.644;23.264;2023-03-25T04:18:52;7.17;;;6.37;;
2293;SDS011;1155;42.644;23.264;2023-03-25T04:21:19;8.00;;;7.20;;
2293;SDS011;1155;42.644;23.264;2023-03-25T04:23:47;8.00;;;5.90;;
2293;SDS011;1155;42.644;23.264;2023-03-25T04:26:15;8.50;;;6.67;;
2293;SDS011;1155;42.644;23.264;2023-03-25T04:28:45;9.90;;;6.30;;
2293;SDS011;1155;42.644;23.264;2023-03-25T04:31:12;7.40;;;6.60;;
2293;SDS011;1155;42.644;23.264;2023-03-25T04:33:41;8.13;;;7.30;;
2293;SDS011;1155;42.644;23.264;2023-03-25T04:36:11;9.60;;;5.90;;
2293;SDS011;1155;42.644;23.264;2023-03-25T04:38:38;9.07;;;5.73;;
2293;SDS011;1155;42.644;23.264;2023-03-25T04:41:09;8.83;;;6.57;;
2293;SDS011;1155;42.644;23.264;2023-03-25T04:43:38;7.50;;;5.70;;
2293;SDS011;1155;42.644;23.264;2023-03-25T04:46:07;6.30;;;5.70;;
2293;SDS011;1155;42.644;23.264;2023-03-25T04:48:38;8.50;;;6.27;;
2293;SDS011;1155;42.644;23.264;2023-03-25T04:51:09;9.03;;;6.60;;
2293;SDS011;1155;42.644;23.264;2023-03-25T04:53:36;9.07;;;6.20;;
2293;SDS011;1155;42.644;23.264;2023-03-25T04:56:04;6.70;;;5.60;;
2293;SDS011;1155;42.644;23.264;2023-03-25T04:58:37;8.87;;;5.47;;
2293;SDS011;1155;42.644;23.264;2023-03-25T05:01:05;8.73;;;5.60;;
2293;SDS011;1155;42.644;23.264;2023-03-25T05:03:36;8.83;;;5.67;;
2293;SDS011;1155;42.644;23.264;2023-03-25T05:06:04;11.30;;;8.63;;
2293;SDS011;1155;42.644;23.264;2023-03-25T05:08:33;11.73;;;7.80;;
2293;SDS011;1155;42.644;23.264;2023-03-25T05:10:59;9.03;;;6.80;;
2293;SDS011;1155;42.644;23.264;2023-03-25T05:13:27;8.80;;;7.03;;
2293;SDS011;1155;42.644;23.264;2023-03-25T05:15:54;9.60;;;7.80;;
2293;SDS011;1155;42.644;23.264;2023-03-25T05:18:22;8.90;;;7.00;;
2293;SDS011;1155;42.644;23.264;2023-03-25T05:20:49;8.50;;;7.20;;
2293;SDS011;1155;42.644;23.264;2023-03-25T05:23:17;10.87;;;7.57;;
2293;SDS011;1155;42.644;23.264;2023-03-25T05:25:46;8.50;;;7.20;;
2293;SDS011;1155;42.644;23.264;2023-03-25T05:28:14;7.57;;;6.87;;
2293;SDS011;1155;42.644;23.264;2023-03-25T05:30:43;9.60;;;5.97;;
2293;SDS011;1155;42.644;23.264;2023-03-25T05:33:12;8.40;;;7.50;;
2293;SDS011;1155;42.644;23.264;2023-03-25T05:35:42;10.83;;;7.63;;
2293;SDS011;1155;42.644;23.264;2023-03-25T05:38:10;7.77;;;6.43;;
2293;SDS011;1155;42.644;23.264;2023-03-25T05:40:40;9.37;;;6.63;;
2293;SDS011;1155;42.644;23.264;2023-03-25T05:43:08;9.80;;;7.37;;
2293;SDS011;1155;42.644;23.264;2023-03-25T05:45:35;8.53;;;6.70;;
2293;SDS011;1155;42.644;23.264;2023-03-25T05:48:02;7.37;;;6.57;;
2293;SDS011;1155;42.644;23.264;2023-03-25T05:50:29;9.80;;;7.33;;
2293;SDS011;1155;42.644;23.264;2023-03-25T05:52:57;8.63;;;6.63;;
2293;SDS011;1155;42.644;23.264;2023-03-25T05:55:24;8.00;;;6.53;;
2293;SDS011;1155;42.644;23.264;2023-03-25T05:57:51;8.63;;;6.80;;
2293;SDS011;1155;42.644;23.264;2023-03-25T06:00:18;7.63;;;6.43;;
2293;SDS011;1155;42.644;23.264;2023-03-25T06:02:46;9.10;;;7.13;;
2293;SDS011;1155;42.644;23.264;2023-03-25T06:05:14;9.17;;;6.90;;
2293;SDS011;1155;42.644;23.264;2023-03-25T06:07:42;10.07;;;6.63;;
2293;SDS011;1155;42.644;23.264;2023-03-25T06:10:13;9.27;;;7.63;;
2293;SDS011;1155;42.644;23.264;2023-03-25T06:12:41;6.90;;;6.20;;
2293;SDS011;1155;42.644;23.264;2023-03-25T06:15:10;8.50;;;6.70;;
2293;SDS011;1155;42.644;23.264;2023-03-25T06:17:38;6.77;;;6.17;;
2293;SDS011;1155;42.644;23.264;2023-03-25T06:20:06;6.90;;;6.20;;
2293;SDS011;1155;42.644;23.264;2023-03-25T06:22:37;9.47;;;7.57;;
2293;SDS011;1155;42.644;23.264;2023-03-25T06:25:05;9.40;;;6.93;;
2293;SDS011;1155;42.644;23.264;2023-03-25T06:27:34;11.07;;;8.23;;
2293;SDS011;1155;42.644;23.264;2023-03-25T06:30:05;8.37;;;6.40;;
2293;SDS011;1155;42.644;23.264;2023-03-25T06:32:33;8.03;;;6.87;;
2293;SDS011;1155;42.644;23.264;2023-03-25T06:35:00;9.30;;;6.43;;
2293;SDS011;1155;42.644;23.264;2023-03-25T06:37:27;9.50;;;7.60;;
2293;SDS011;1155;42.644;23.264;2023-03-25T06:39:54;10.30;;;7.20;;
2293;SDS011;1155;42.644;23.264;2023-03-25T06:42:23;9.60;;;7.10;;
2293;SDS011;1155;42.644;23.264;2023-03-25T06:44:52;8.03;;;7.23;;
2293;SDS011;1155;42.644;23.264;2023-03-25T06:47:19;9.80;;;7.90;;
2293;SDS011;1155;42.644;23.264;2023-03-25T06:49:47;6.93;;;6.20;;
2293;SDS011;1155;42.644;23.264;2023-03-25T06:52:14;7.00;;;6.27;;
2293;SDS011;1155;42.644;23.264;2023-03-25T06:54:41;10.03;;;7.63;;
2293;SDS011;1155;42.644;23.264;2023-03-25T06:57:08;9.53;;;6.73;;
2293;SDS011;1155;42.644;23.264;2023-03-25T06:59:34;10.20;;;7.60;;
2293;SDS011;1155;42.644;23.264;2023-03-25T07:02:03;8.47;;;6.83;;
2293;SDS011;1155;42.644;23.264;2023-03-25T07:04:30;12.13;;;7.93;;
2293;SDS011;1155;42.644;23.264;2023-03-25T07:06:56;11.50;;;8.17;;
2293;SDS011;1155;42.644;23.264;2023-03-25T07:09:23;12.93;;;7.87;;
2293;SDS011;1155;42.644;23.264;2023-03-25T07:11:50;10.70;;;8.40;;
2293;SDS011;1155;42.644;23.264;2023-03-25T07:14:17;11.40;;;8.40;;
2293;SDS011;1155;42.644;23.264;2023-03-25T07:16:44;8.73;;;7.80;;
2293;SDS011;1155;42.644;23.264;2023-03-25T07:19:12;10.17;;;8.60;;
2293;SDS011;1155;42.644;23.264;2023-03-25T07:21:38;15.07;;;10.30;;
2293;SDS011;1155;42.644;23.264;2023-03-25T07:24:05;13.23;;;8.90;;
2293;SDS011;1155;42.644;23.264;2023-03-25T07:26:32;16.23;;;8.90;;
2293;SDS011;1155;42.644;23.264;2023-03-25T07:28:59;13.90;;;8.90;;
2293;SDS011;1155;42.644;23.264;2023-03-25T07:31:27;14.60;;;10.40;;
2293;SDS011;1155;42.644;23.264;2023-03-25T07:33:54;11.80;;;9.03;;
2293;SDS011;1155;42.644;23.264;2023-03-25T07:36:24;14.23;;;9.53;;
2293;SDS011;1155;42.644;23.264;2023-03-25T07:38:51;14.83;;;10.37;;
2293;SDS011;1155;42.644;23.264;2023-03-25T07:41:18;14.30;;;11.13;;
2293;SDS011;1155;42.644;23.264;2023-03-25T07:43:45;13.07;;;9.87;;
2293;SDS011;1155;42.644;23.264;2023-03-25T07:46:12;14.63;;;10.37;;
2293;SDS011;1155;42.644;23.264;2023-03-25T07:48:39;12.90;;;10.10;;
2293;SDS011;1155;42.644;23.264;2023-03-25T07:51:06;14.37;;;10.27;;
2293;SDS011;1155;42.644;23.264;2023-03-25T07:53:35;13.63;;;10.10;;
2293;SDS011;1155;42.644;23.264;2023-03-25T07:56:06;11.90;;;9.80;;
2293;SDS011;1155;42.644;23.264;2023-03-25T07:58:34;16.33;;;11.80;;
2293;SDS011;1155;42.644;23.264;2023-03-25T08:01:01;14.63;;;10.03;;
2293;SDS011;1155;42.644;23.264;2023-03-25T08:03:28;11.13;;;9.90;;
2293;SDS011;1155;42.644;23.264;2023-03-25T08:05:58;17.03;;;11.37;;
2293;SDS011;1155;42.644;23.264;2023-03-25T08:08:28;14.37;;;11.60;;
2293;SDS011;1155;42.644;23.264;2023-03-25T08:10:56;16.37;;;12.10;;
2293;SDS011;1155;42.644;23.264;2023-03-25T08:13:23;17.30;;;13.10;;
2293;SDS011;1155;42.644;23.264;2023-03-25T08:15:51;20.83;;;12.83;;
2293;SDS011;1155;42.644;23.264;2023-03-25T08:18:18;19.47;;;14.13;;
2293;SDS011;1155;42.644;23.264;2023-03-25T08:20:45;15.70;;;12.80;;
2293;SDS011;1155;42.644;23.264;2023-03-25T08:23:13;20.30;;;12.60;;
2293;SDS011;1155;42.644;23.264;2023-03-25T08:25:42;22.63;;;12.33;;
2293;SDS011;1155;42.644;23.264;2023-03-25T08:28:11;17.43;;;12.20;;
2293;SDS011;1155;42.644;23.264;2023-03-25T08:30:41;24.40;;;12.27;;
2293;SDS011;1155;42.644;23.264;2023-03-25T08:33:17;18.57;;;11.20;;
2293;SDS011;1155;42.644;23.264;2023-03-25T08:35:45;15.60;;;12.47;;
2293;SDS011;1155;42.644;23.264;2023-03-25T08:38:15;16.20;;;13.20;;
2293;SDS011;1155;42.644;23.264;2023-03-25T08:40:41;15.60;;;14.00;;
2293;SDS011;1155;42.644;23.264;2023-03-25T08:43:09;16.40;;;12.03;;
2293;SDS011;1155;42.644;23.264;2023-03-25T08:45:37;19.27;;;14.10;;
2293;SDS011;1155;42.644;23.264;2023-03-25T08:48:04;32.33;;;15.57;;
2293;SDS011;1155;42.644;23.264;2023-03-25T08:50:31;24.27;;;14.83;;
2293;SDS011;1155;42.644;23.264;2023-03-25T08:52:58;20.20;;;13.70;;
2293;SDS011;1155;42.644;23.264;2023-03-25T08:55:25;21.13;;;15.00;;
2293;SDS011;1155;42.644;23.264;2023-03-25T08:57:52;19.10;;;15.37;;
2293;SDS011;1155;42.644;23.264;2023-03-25T09:00:20;19.77;;;15.80;;
2293;SDS011;1155;42.644;23.264;2023-03-25T09:02:49;25.13;;;15.73;;
2293;SDS011;1155;42.644;23.264;2023-03-25T09:05:16;27.67;;;16.77;;
2293;SDS011;1155;42.644;23.264;2023-03-25T09:07:43;22.77;;;16.97;;
2293;SDS011;1155;42.644;23.264;2023-03-25T09:10:09;23.77;;;15.97;;
2293;SDS011;1155;42.644;23.264;2023-03-25T09:12:37;20.60;;;15.87;;
2293;SDS011;1155;42.644;23.264;2023-03-25T09:15:04;21.30;;;15.30;;
2293;SDS011;1155;42.644;23.264;2023-03-25T09:17:34;19.33;;;15.97;;
2293;SDS011;1155;42.644;23.264;2023-03-25T09:20:00;16.80;;;15.03;;
2293;SDS011;1155;42.644;23.264;2023-03-25T09:22:27;18.07;;;14.53;;
2293;SDS011;1155;42.644;23.264;2023-03-25T09:24:54;22.33;;;14.93;;
2293;SDS011;1155;42.644;23.264;2023-03-25T09:27:21;23.37;;;14.60;;
2293;SDS011;1155;42.644;23.264;2023-03-25T09:29:48;24.00;;;15.00;;
2293;SDS011;1155;42.644;23.264;2023-03-25T09:32:15;19.33;;;14.60;;
2293;SDS011;1155;42.644;23.264;2023-03-25T09:34:44;29.13;;;13.63;;
2293;SDS011;1155;42.644;23.264;2023-03-25T09:37:11;18.03;;;14.33;;
2293;SDS011;1155;42.644;23.264;2023-03-25T09:39:38;16.73;;;14.30;;
2293;SDS011;1155;42.644;23.264;2023-03-25T09:42:12;19.00;;;14.83;;
2293;SDS011;1155;42.644;23.264;2023-03-25T09:45:03;18.60;;;13.90;;
2293;SDS011;1155;42.644;23.264;2023-03-25T09:47:40;19.83;;;14.90;;
2293;SDS011;1155;42.644;23.264;2023-03-25T09:50:14;18.90;;;14.10;;
2293;SDS011;1155;42.644;23.264;2023-03-25T09:52:46;17.10;;;13.77;;
2293;SDS011;1155;42.644;23.264;2023-03-25T09:55:20;18.67;;;15.13;;
2293;SDS011;1155;42.644;23.264;2023-03-25T09:57:50;21.23;;;14.13;;
2293;SDS011;1155;42.644;23.264;2023-03-25T10:00:24;23.43;;;13.30;;
2293;SDS011;1155;42.644;23.264;2023-03-25T10:02:53;15.43;;;13.10;;
2293;SDS011;1155;42.644;23.264;2023-03-25T10:05:42;13.73;;;11.80;;
2293;SDS011;1155;42.644;23.264;2023-03-25T10:08:27;15.70;;;11.83;;
2293;SDS011;1155;42.644;23.264;2023-03-25T10:11:06;16.63;;;11.67;;
2293;SDS011;1155;42.644;23.264;2023-03-25T10:13:39;12.10;;;9.30;;
2293;SDS011;1155;42.644;23.264;2023-03-25T10:16:15;15.70;;;10.27;;
2293;SDS011;1155;42.644;23.264;2023-03-25T10:18:54;14.93;;;8.83;;
2293;SDS011;1155;42.644;23.264;2023-03-25T10:21:34;11.67;;;9.07;;
2293;SDS011;1155;42.644;23.264;2023-03-25T10:24:11;10.87;;;6.47;;
2293;SDS011;1155;42.644;23.264;2023-03-25T10:26:44;9.47;;;6.80;;
2293;SDS011;1155;42.644;23.264;2023-03-25T10:29:14;14.80;;;7.73;;
2293;SDS011;1155;42.644;23.264;2023-03-25T10:31:48;14.40;;;8.53;;
2293;SDS011;1155;42.644;23.264;2023-03-25T10:34:22;12.57;;;6.83;;
2293;SDS011;1155;42.644;23.264;2023-03-25T10:36:58;8.93;;;5.87;;
2293;SDS011;1155;42.644;23.264;2023-03-25T10:39:30;10.13;;;5.70;;
2293;SDS011;1155;42.644;23.264;2023-03-25T10:42:02;11.00;;;5.70;;
2293;SDS011;1155;42.644;23.264;2023-03-25T10:44:39;11.90;;;7.80;;
2293;SDS011;1155;42.644;23.264;2023-03-25T10:47:07;7.43;;;6.43;;
2293;SDS011;1155;42.644;23.264;2023-03-25T10:49:40;7.33;;;5.40;;
2293;SDS011;1155;42.644;23.264;2023-03-25T10:52:09;5.77;;;5.03;;
2293;SDS011;1155;42.644;23.264;2023-03-25T10:54:38;7.23;;;5.27;;
2293;SDS011;1155;42.644;23.264;2023-03-25T10:57:08;7.60;;;5.87;;
2293;SDS011;1155;42.644;23.264;2023-03-25T10:59:42;7.07;;;6.00;;
2293;SDS011;1155;42.644;23.264;2023-03-25T11:02:16;5.47;;;4.90;;
2293;SDS011;1155;42.644;23.264;2023-03-25T11:04:46;6.30;;;5.70;;
2293;SDS011;1155;42.644;23.264;2023-03-25T11:07:17;8.00;;;5.77;;
2293;SDS011;1155;42.644;23.264;2023-03-25T11:09:46;5.40;;;4.90;;
2293;SDS011;1155;42.644;23.264;2023-03-25T11:12:13;6.50;;;5.07;;
2293;SDS011;1155;42.644;23.264;2023-03-25T11:14:44;6.00;;;5.40;;
2293;SDS011;1155;42.644;23.264;2023-03-25T11:17:20;6.67;;;5.70;;
2293;SDS011;1155;42.644;23.264;2023-03-25T11:19:51;7.27;;;6.23;;
2293;SDS011;1155;42.644;23.264;2023-03-25T11:22:23;5.90;;;5.33;;
2293;SDS011;1155;42.644;23.264;2023-03-25T11:24:55;7.07;;;6.37;;
2293;SDS011;1155;42.644;23.264;2023-03-25T11:27:26;6.70;;;4.57;;
2293;SDS011;1155;42.644;23.264;2023-03-25T11:29:55;6.40;;;4.60;;
2293;SDS011;1155;42.644;23.264;2023-03-25T11:32:31;4.63;;;4.27;;
2293;SDS011;1155;42.644;23.264;2023-03-25T11:34:59;6.57;;;5.83;;
2293;SDS011;1155;42.644;23.264;2023-03-25T11:37:29;9.43;;;6.03;;
2293;SDS011;1155;42.644;23.264;2023-03-25T11:39:58;4.43;;;3.70;;
2293;SDS011;1155;42.644;23.264;2023-03-25T11:42:31;5.23;;;4.73;;
2293;SDS011;1155;42.644;23.264;2023-03-25T11:45:01;4.20;;;3.60;;
2293;SDS011;1155;42.644;23.264;2023-03-25T11:47:29;6.50;;;4.37;;
2293;SDS011;1155;42.644;23.264;2023-03-25T11:49:58;7.80;;;5.70;;
2293;SDS011;1155;42.644;23.264;2023-03-25T11:52:26;5.23;;;4.73;;
2293;SDS011;1155;42.644;23.264;2023-03-25T11:55:00;3.67;;;3.37;;
2293;SDS011;1155;42.644;23.264;2023-03-25T11:57:30;3.60;;;3.30;;
2293;SDS011;1155;42.644;23.264;2023-03-25T12:00:03;4.53;;;3.77;;
2293;SDS011;1155;42.644;23.264;2023-03-25T12:02:42;4.33;;;3.93;;
2293;SDS011;1155;42.644;23.264;2023-03-25T12:05:11;5.50;;;4.50;;
2293;SDS011;1155;42.644;23.264;2023-03-25T12:07:42;7.80;;;3.37;;
2293;SDS011;1155;42.644;23.264;2023-03-25T12:10:15;4.47;;;4.07;;
2293;SDS011;1155;42.644;23.264;2023-03-25T12:12:48;4.73;;;3.23;;
2293;SDS011;1155;42.644;23.264;2023-03-25T12:15:27;6.10;;;4.10;;
2293;SDS011;1155;42.644;23.264;2023-03-25T12:18:07;4.60;;;4.20;;
2293;SDS011;1155;42.644;23.264;2023-03-25T12:20:47;6.43;;;4.00;;
2293;SDS011;1155;42.644;23.264;2023-03-25T12:23:23;4.10;;;3.73;;
2293;SDS011;1155;42.644;23.264;2023-03-25T12:26:03;6.07;;;3.30;;
2293;SDS011;1155;42.644;23.264;2023-03-25T12:31:38;3.53;;;3.17;;
2293;SDS011;1155;42.644;23.264;2023-03-25T12:34:17;3.90;;;3.60;;
2293;SDS011;1155;42.644;23.264;2023-03-25T12:36:57;5.80;;;3.23;;
2293;SDS011;1155;42.644;23.264;2023-03-25T12:39:40;4.00;;;3.60;;
2293;SDS011;1155;42.644;23.264;2023-03-25T12:42:20;4.37;;;3.97;;
2293;SDS011;1155;42.644;23.264;2023-03-25T12:45:03;4.93;;;3.60;;
2293;SDS011;1155;42.644;23.264;2023-03-25T12:47:42;6.10;;;3.93;;
2293;SDS011;1155;42.644;23.264;2023-03-25T12:50:21;5.30;;;2.67;;
2293;SDS011;1155;42.644;23.264;2023-03-25T12:52:55;7.53;;;4.10;;
2293;SDS011;1155;42.644;23.264;2023-03-25T12:55:49;6.57;;;3.63;;
2293;SDS011;1155;42.644;23.264;2023-03-25T12:58:34;4.73;;;2.97;;
2293;SDS011;1155;42.644;23.264;2023-03-25T13:01:28;4.90;;;3.37;;
2293;SDS011;1155;42.644;23.264;2023-03-25T13:04:07;3.50;;;3.03;;
2293;SDS011;1155;42.644;23.264;2023-03-25T13:06:44;4.13;;;3.73;;
2293;SDS011;1155;42.644;23.264;2023-03-25T13:09:26;4.70;;;3.70;;
2293;SDS011;1155;42.644;23.264;2023-03-25T13:12:01;4.90;;;3.40;;
2293;SDS011;1155;42.644;23.264;2023-03-25T13:14:36;4.40;;;3.60;;
2293;SDS011;1155;42.644;23.264;2023-03-25T13:17:09;4.27;;;3.87;;
2293;SDS011;1155;42.644;23.264;2023-03-25T13:19:44;4.80;;;4.40;;
2293;SDS011;1155;42.644;23.264;2023-03-25T13:22:13;5.37;;;4.30;;
2293;SDS011;1155;42.644;23.264;2023-03-25T13:24:45;8.20;;;4.37;;
2293;SDS011;1155;42.644;23.264;2023-03-25T13:27:18;4.20;;;3.33;;
2293;SDS011;1155;42.644;23.264;2023-03-25T13:29:46;6.13;;;3.70;;
2293;SDS011;1155;42.644;23.264;2023-03-25T13:32:16;5.70;;;4.20;;
2293;SDS011;1155;42.644;23.264;2023-03-25T13:34:48;7.20;;;4.73;;
2293;SDS011;1155;42.644;23.264;2023-03-25T13:37:19;4.37;;;3.93;;
2293;SDS011;1155;42.644;23.264;2023-03-25T13:39:53;5.23;;;4.43;;
2293;SDS011;1155;42.644;23.264;2023-03-25T13:42:38;6.53;;;4.63;;
2293;SDS011;1155;42.644;23.264;2023-03-25T13:45:13;9.10;;;4.63;;
2293;SDS011;1155;42.644;23.264;2023-03-25T13:47:42;5.97;;;3.97;;
2293;SDS011;1155;42.644;23.264;2023-03-25T13:50:17;5.90;;;3.90;;
2293;SDS011;1155;42.644;23.264;2023-03-25T13:52:50;5.03;;;4.40;;
2293;SDS011;1155;42.644;23.264;2023-03-25T13:55:23;4.23;;;3.57;;
2293;SDS011;1155;42.644;23.264;2023-03-25T13:58:10;6.63;;;4.07;;
2293;SDS011;1155;42.644;23.264;2023-03-25T14:00:53;4.57;;;4.17;;
2293;SDS011;1155;42.644;23.264;2023-03-25T14:03:52;7.93;;;4.60;;
2293;SDS011;1155;42.644;23.264;2023-03-25T14:06:57;6.17;;;4.23;;
2293;SDS011;1155;42.644;23.264;2023-03-25T14:09:51;6.60;;;4.80;;
2293;SDS011;1155;42.644;23.264;2023-03-25T14:12:42;6.07;;;5.57;;
2293;SDS011;1155;42.644;23.264;2023-03-25T14:15:14;5.37;;;3.70;;
2293;SDS011;1155;42.644;23.264;2023-03-25T14:17:45;8.60;;;3.73;;
2293;SDS011;1155;42.644;23.264;2023-03-25T14:20:16;5.27;;;3.90;;
2293;SDS011;1155;42.644;23.264;2023-03-25T14:22:49;5.57;;;4.20;;
2293;SDS011;1155;42.644;23.264;2023-03-25T14:25:26;4.73;;;4.23;;
2293;SDS011;1155;42.644;23.264;2023-03-25T14:27:57;4.40;;;3.97;;
2293;SDS011;1155;42.644;23.264;2023-03-25T14:30:28;8.13;;;4.10;;
2293;SDS011;1155;42.644;23.264;2023-03-25T14:32:56;7.93;;;4.93;;
2293;SDS011;1155;42.644;23.264;2023-03-25T14:38:18;8.50;;;7.70;;
2293;SDS011;1155;42.644;23.264;2023-03-25T14:41:12;7.27;;;5.00;;
2293;SDS011;1155;42.644;23.264;2023-03-25T14:43:42;5.50;;;5.00;;
2293;SDS011;1155;42.644;23.264;2023-03-25T14:46:16;10.23;;;4.57;;
2293;SDS011;1155;42.644;23.264;2023-03-25T14:48:48;7.20;;;5.57;;
2293;SDS011;1155;42.644;23.264;2023-03-25T14:54:16;5.03;;;4.50;;
2293;SDS011;1155;42.644;23.264;2023-03-25T14:56:48;3.73;;;3.40;;
2293;SDS011;1155;42.644;23.264;2023-03-25T14:59:20;11.30;;;7.67;;
2293;SDS011;1155;42.644;23.264;2023-03-25T15:01:52;15.60;;;10.70;;
2293;SDS011;1155;42.644;23.264;2023-03-25T15:04:26;6.77;;;5.80;;
2293;SDS011;1155;42.644;23.264;2023-03-25T15:06:56;7.77;;;6.73;;
2293;SDS011;1155;42.644;23.264;2023-03-25T15:09:23;7.13;;;6.20;;
2293;SDS011;1155;42.644;23.264;2023-03-25T15:11:54;6.13;;;5.50;;
2293;SDS011;1155;42.644;23.264;2023-03-25T15:14:23;10.33;;;4.93;;
2293;SDS011;1155;42.644;23.264;2023-03-25T15:16:58;5.07;;;4.50;;
2293;SDS011;1155;42.644;23.264;2023-03-25T15:22:33;5.60;;;5.10;;
2293;SDS011;1155;42.644;23.264;2023-03-25T15:25:01;5.20;;;4.80;;
2293;SDS011;1155;42.644;23.264;2023-03-25T15:27:37;8.33;;;6.90;;
2293;SDS011;1155;42.644;23.264;2023-03-25T15:30:26;5.10;;;4.60;;
2293;SDS011;1155;42.644;23.264;2023-03-25T15:33:21;4.67;;;3.80;;
2293;SDS011;1155;42.644;23.264;2023-03-25T15:36:04;8.30;;;5.13;;
2293;SDS011;1155;42.644;23.264;2023-03-25T15:39:00;5.10;;;4.50;;